sensor_id;sensor_type;location;lat;lon;timestamp;pressure;altitude;pressure_sealevel;temperature;humidity
41800;BME280;27468;47.460;19.034;2024-01-15T00:01:07;99268.50;;;-1.16;100.00
41800;BME280;27468;47.460;19.034;2024-01-15T00:03:32;99250.38;;;-1.19;100.00
41800;BME280;27468;47.460;19.034;2024-01-15T00:05:57;99254.72;;;-1.12;100.00
41800;BME280;27468;47.460;19.034;2024-01-15T00:08:23;99244.38;;;-1.09;100.00
41800;BME280;27468;47.460;19.034;2024-01-15T00:10:48;99235.75;;;-1.09;100.00
41800;BME280;27468;47.460;19.034;2024-01-15T00:13:13;99237.53;;;-1.05;100.00
41800;BME280;27468;47.460;19.034;2024-01-15T00:15:39;99239.25;;;-1.04;100.00
41800;BME280;27468;47.460;19.034;2024-01-15T00:18:04;99227.13;;;-1.10;100.00
41800;BME280;27468;47.460;19.034;2024-01-15T00:20:30;99218.59;;;-1.01;100.00
41800;BME280;27468;47.460;19.034;2024-01-15T00:22:55;99210.84;;;-1.01;100.00
41800;BME280;27468;47.460;19.034;2024-01-15T00:25:21;99206.53;;;-1.01;100.00
41800;BME280;27468;47.460;19.034;2024-01-15T00:27:46;99222.09;;;-0.94;100.00
41800;BME280;27468;47.460;19.034;2024-01-15T00:30:12;99191.88;;;-0.98;100.00
41800;BME280;27468;47.460;19.034;2024-01-15T00:32:37;99183.25;;;-1.01;99.95
41800;BME280;27468;47.460;19.034;2024-01-15T00:35:03;99189.28;;;-1.00;99.95
41800;BME280;27468;47.460;19.034;2024-01-15T00:37:29;99184.13;;;-0.97;100.00
41800;BME280;27468;47.460;19.034;2024-01-15T00:39:55;99186.78;;;-0.86;99.82
41800;BME280;27468;47.460;19.034;2024-01-15T00:42:20;99191.97;;;-0.86;99.50
41800;BME280;27468;47.460;19.034;2024-01-15T00:44:45;99190.25;;;-0.87;99.54
41800;BME280;27468;47.460;19.034;2024-01-15T00:47:11;99187.66;;;-0.86;99.37
41800;BME280;27468;47.460;19.034;2024-01-15T00:49:36;99183.31;;;-0.90;99.12
41800;BME280;27468;47.460;19.034;2024-01-15T00:52:01;99194.59;;;-0.82;99.12
41800;BME280;27468;47.460;19.034;2024-01-15T00:54:27;99190.28;;;-0.81;98.98
41800;BME280;27468;47.460;19.034;2024-01-15T00:56:52;99185.97;;;-0.79;98.72
41800;BME280;27468;47.460;19.034;2024-01-15T00:59:17;99187.72;;;-0.78;98.38
41800;BME280;27468;47.460;19.034;2024-01-15T01:01:43;99197.25;;;-0.71;98.10
41800;BME280;27468;47.460;19.034;2024-01-15T01:04:11;99183.44;;;-0.75;98.07
41800;BME280;27468;47.460;19.034;2024-01-15T01:06:36;99177.38;;;-0.78;97.70
41800;BME280;27468;47.460;19.034;2024-01-15T01:09:02;99174.78;;;-0.75;97.67
41800;BME280;27468;47.460;19.034;2024-01-15T01:11:27;99177.41;;;-0.69;97.35
41800;BME280;27468;47.460;19.034;2024-01-15T01:13:52;99161.84;;;-0.77;97.40
41800;BME280;27468;47.460;19.034;2024-01-15T01:16:18;99159.25;;;-0.77;96.88
41800;BME280;27468;47.460;19.034;2024-01-15T01:18:43;99167.91;;;-0.72;97.25
41800;BME280;27468;47.460;19.034;2024-01-15T01:21:08;99151.50;;;-0.75;97.03
41800;BME280;27468;47.460;19.034;2024-01-15T01:23:34;99149.78;;;-0.73;96.76
41800;BME280;27468;47.460;19.034;2024-01-15T01:25:59;99140.25;;;-0.82;96.64
41800;BME280;27468;47.460;19.034;2024-01-15T01:28:24;99135.94;;;-0.80;96.78
41800;BME280;27468;47.460;19.034;2024-01-15T01:30:49;99137.69;;;-0.77;96.68
41800;BME280;27468;47.460;19.034;2024-01-15T01:33:15;99128.16;;;-0.84;96.91
41800;BME280;27468;47.460;19.034;2024-01-15T01:35:40;99127.28;;;-0.85;97.21
41800;BME280;27468;47.460;19.034;2024-01-15T01:38:06;99123.84;;;-0.84;97.07
41800;BME280;27468;47.460;19.034;2024-01-15T01:40:31;99131.63;;;-0.81;97.21
41800;BME280;27468;47.460;19.034;2024-01-15T01:42:56;99123.00;;;-0.84;97.75
41800;BME280;27468;47.460;19.034;2024-01-15T01:45:21;99117.84;;;-0.80;97.43
41800;BME280;27468;47.460;19.034;2024-01-15T01:47:47;99113.50;;;-0.82;97.36
41800;BME280;27468;47.460;19.034;2024-01-15T01:50:13;99123.88;;;-0.82;97.20
41800;BME280;27468;47.460;19.034;2024-01-15T01:52:39;99116.06;;;-0.87;97.06
41800;BME280;27468;47.460;19.034;2024-01-15T01:55:06;99116.06;;;-0.88;96.88
41800;BME280;27468;47.460;19.034;2024-01-15T01:57:33;99099.63;;;-0.98;96.43
41800;BME280;27468;47.460;19.034;2024-01-15T02:00:00;99103.00;;;-1.07;96.70
41800;BME280;27468;47.460;19.034;2024-01-15T02:02:26;99091.78;;;-1.10;96.49
41800;BME280;27468;47.460;19.034;2024-01-15T02:04:51;99098.66;;;-1.15;96.13
41800;BME280;27468;47.460;19.034;2024-01-15T02:07:17;99091.75;;;-1.19;96.14
41800;BME280;27468;47.460;19.034;2024-01-15T02:09:46;99070.06;;;-1.41;96.30
41800;BME280;27468;47.460;19.034;2024-01-15T02:12:12;99069.19;;;-1.43;96.33
41800;BME280;27468;47.460;19.034;2024-01-15T02:14:37;99068.22;;;-1.57;96.35
41800;BME280;27468;47.460;19.034;2024-01-15T02:17:04;99071.66;;;-1.55;96.00
41800;BME280;27468;47.460;19.034;2024-01-15T02:19:29;99082.81;;;-1.62;96.30
41800;BME280;27468;47.460;19.034;2024-01-15T02:21:55;99088.81;;;-1.65;95.89
41800;BME280;27468;47.460;19.034;2024-01-15T02:24:20;99070.66;;;-1.79;96.52
41800;BME280;27468;47.460;19.034;2024-01-15T02:26:46;99099.94;;;-1.72;96.47
41800;BME280;27468;47.460;19.034;2024-01-15T02:29:13;99081.78;;;-1.84;97.33
41800;BME280;27468;47.460;19.034;2024-01-15T02:31:40;99062.78;;;-1.91;97.65
41800;BME280;27468;47.460;19.034;2024-01-15T02:34:05;99067.03;;;-1.99;97.96
41800;BME280;27468;47.460;19.034;2024-01-15T02:36:30;99061.75;;;-2.08;98.74
41800;BME280;27468;47.460;19.034;2024-01-15T02:38:55;99067.84;;;-2.03;98.55
41800;BME280;27468;47.460;19.034;2024-01-15T02:41:21;99050.53;;;-2.13;98.45
41800;BME280;27468;47.460;19.034;2024-01-15T02:43:47;99040.13;;;-2.19;98.50
41800;BME280;27468;47.460;19.034;2024-01-15T02:46:13;99054.00;;;-2.08;98.38
41800;BME280;27468;47.460;19.034;2024-01-15T02:48:38;99055.66;;;-2.15;98.74
41800;BME280;27468;47.460;19.034;2024-01-15T02:51:04;99022.00;;;-2.25;99.20
41800;BME280;27468;47.460;19.034;2024-01-15T02:53:29;99052.97;;;-2.27;99.33
41800;BME280;27468;47.460;19.034;2024-01-15T02:55:54;99078.78;;;-2.27;98.74
41800;BME280;27468;47.460;19.034;2024-01-15T02:58:20;99070.13;;;-2.30;99.29
41800;BME280;27468;47.460;19.034;2024-01-15T03:00:46;99048.56;;;-2.39;99.65
41800;BME280;27468;47.460;19.034;2024-01-15T03:03:12;99035.63;;;-2.43;99.89
41800;BME280;27468;47.460;19.034;2024-01-15T03:05:37;99033.88;;;-2.46;99.94
41800;BME280;27468;47.460;19.034;2024-01-15T03:08:02;99026.09;;;-2.49;99.93
41800;BME280;27468;47.460;19.034;2024-01-15T03:10:28;99027.00;;;-2.45;100.00
41800;BME280;27468;47.460;19.034;2024-01-15T03:12:53;99014.00;;;-2.54;100.00
41800;BME280;27468;47.460;19.034;2024-01-15T03:15:18;99019.97;;;-2.58;100.00
41800;BME280;27468;47.460;19.034;2024-01-15T03:17:44;99004.44;;;-2.64;100.00
41800;BME280;27468;47.460;19.034;2024-01-15T03:20:10;99014.75;;;-2.63;100.00
41800;BME280;27468;47.460;19.034;2024-01-15T03:22:35;98998.28;;;-2.74;100.00
41800;BME280;27468;47.460;19.034;2024-01-15T03:25:01;98995.75;;;-2.71;100.00
41800;BME280;27468;47.460;19.034;2024-01-15T03:27:26;99008.69;;;-2.67;100.00
41800;BME280;27468;47.460;19.034;2024-01-15T03:29:52;99001.75;;;-2.74;100.00
41800;BME280;27468;47.460;19.034;2024-01-15T03:32:17;98994.81;;;-2.79;100.00
41800;BME280;27468;47.460;19.034;2024-01-15T03:34:42;99004.41;;;-2.66;100.00
41800;BME280;27468;47.460;19.034;2024-01-15T03:37:08;99015.59;;;-2.64;100.00
41800;BME280;27468;47.460;19.034;2024-01-15T03:39:33;99006.13;;;-2.65;100.00
41800;BME280;27468;47.460;19.034;2024-01-15T03:41:58;99038.94;;;-2.55;100.00
41800;BME280;27468;47.460;19.034;2024-01-15T03:44:24;99033.84;;;-2.47;100.00
41800;BME280;27468;47.460;19.034;2024-01-15T03:46:49;99007.16;;;-2.49;100.00
41800;BME280;27468;47.460;19.034;2024-01-15T03:49:15;99033.88;;;-2.44;100.00
41800;BME280;27468;47.460;19.034;2024-01-15T03:51:40;99042.50;;;-2.44;100.00
41800;BME280;27468;47.460;19.034;2024-01-15T03:54:05;99044.16;;;-2.49;100.00
41800;BME280;27468;47.460;19.034;2024-01-15T03:56:30;99033.88;;;-2.46;100.00
41800;BME280;27468;47.460;19.034;2024-01-15T03:58:56;99020.06;;;-2.51;100.00
41800;BME280;27468;47.460;19.034;2024-01-15T04:01:21;99019.94;;;-2.60;100.00
41800;BME280;27468;47.460;19.034;2024-01-15T04:03:46;99034.56;;;-2.62;100.00
41800;BME280;27468;47.460;19.034;2024-01-15T04:06:12;99032.81;;;-2.63;100.00
41800;BME280;27468;47.460;19.034;2024-01-15T04:08:37;99041.34;;;-2.69;100.00
41800;BME280;27468;47.460;19.034;2024-01-15T04:11:02;99016.28;;;-2.80;100.00
41800;BME280;27468;47.460;19.034;2024-01-15T04:13:28;99011.16;;;-2.77;100.00
41800;BME280;27468;47.460;19.034;2024-01-15T04:15:53;99022.22;;;-2.86;100.00
41800;BME280;27468;47.460;19.034;2024-01-15T04:18:18;99004.19;;;-2.89;100.00
41800;BME280;27468;47.460;19.034;2024-01-15T04:20:44;98985.16;;;-2.97;100.00
41800;BME280;27468;47.460;19.034;2024-01-15T04:23:10;98986.84;;;-3.01;100.00
41800;BME280;27468;47.460;19.034;2024-01-15T04:25:35;99005.00;;;-2.93;100.00
41800;BME280;27468;47.460;19.034;2024-01-15T04:28:00;98975.66;;;-3.03;100.00
41800;BME280;27468;47.460;19.034;2024-01-15T04:30:26;99000.59;;;-3.02;100.00
41800;BME280;27468;47.460;19.034;2024-01-15T04:32:51;98987.53;;;-3.14;100.00
41800;BME280;27468;47.460;19.034;2024-01-15T04:35:16;98989.28;;;-3.11;100.00
41800;BME280;27468;47.460;19.034;2024-01-15T04:37:42;98987.59;;;-3.09;100.00
41800;BME280;27468;47.460;19.034;2024-01-15T04:40:08;98966.00;;;-3.19;100.00
41800;BME280;27468;47.460;19.034;2024-01-15T04:42:33;98989.22;;;-3.17;100.00
41800;BME280;27468;47.460;19.034;2024-01-15T04:44:59;98995.22;;;-3.18;100.00
41800;BME280;27468;47.460;19.034;2024-01-15T04:47:24;98993.47;;;-3.19;100.00
41800;BME280;27468;47.460;19.034;2024-01-15T04:49:50;98984.88;;;-3.20;100.00
41800;BME280;27468;47.460;19.034;2024-01-15T04:52:15;98979.66;;;-3.26;100.00
41800;BME280;27468;47.460;19.034;2024-01-15T04:54:40;98975.31;;;-3.30;100.00
41800;BME280;27468;47.460;19.034;2024-01-15T04:57:06;98984.78;;;-3.27;100.00
41800;BME280;27468;47.460;19.034;2024-01-15T04:59:31;98999.34;;;-3.29;100.00
41800;BME280;27468;47.460;19.034;2024-01-15T05:01:56;98998.44;;;-3.33;100.00
41800;BME280;27468;47.460;19.034;2024-01-15T05:04:22;98983.69;;;-3.45;100.00
41800;BME280;27468;47.460;19.034;2024-01-15T05:06:47;98992.38;;;-3.38;100.00
41800;BME280;27468;47.460;19.034;2024-01-15T05:09:12;98979.44;;;-3.41;100.00
41800;BME280;27468;47.460;19.034;2024-01-15T05:11:40;99000.94;;;-3.39;100.00
41800;BME280;27468;47.460;19.034;2024-01-15T05:14:05;98988.88;;;-3.42;100.00
41800;BME280;27468;47.460;19.034;2024-01-15T05:16:31;98986.25;;;-3.45;100.00
41800;BME280;27468;47.460;19.034;2024-01-15T05:18:56;98989.72;;;-3.44;100.00
41800;BME280;27468;47.460;19.034;2024-01-15T05:21:21;99003.50;;;-3.41;100.00
41800;BME280;27468;47.460;19.034;2024-01-15T05:23:46;99004.38;;;-3.40;100.00
41800;BME280;27468;47.460;19.034;2024-01-15T05:26:12;98995.72;;;-3.45;100.00
41800;BME280;27468;47.460;19.034;2024-01-15T05:28:37;98994.03;;;-3.42;100.00
41800;BME280;27468;47.460;19.034;2024-01-15T05:31:03;99005.22;;;-3.40;100.00
41800;BME280;27468;47.460;19.034;2024-01-15T05:33:29;99000.84;;;-3.45;100.00
41800;BME280;27468;47.460;19.034;2024-01-15T05:35:54;99000.00;;;-3.44;100.00
41800;BME280;27468;47.460;19.034;2024-01-15T05:38:20;98981.00;;;-3.55;100.00
41800;BME280;27468;47.460;19.034;2024-01-15T05:40:45;98992.25;;;-3.49;100.00
41800;BME280;27468;47.460;19.034;2024-01-15T05:43:11;98976.69;;;-3.56;100.00
41800;BME280;27468;47.460;19.034;2024-01-15T05:45:38;98998.28;;;-3.48;100.00
41800;BME280;27468;47.460;19.034;2024-01-15T05:48:04;99006.00;;;-3.48;100.00
41800;BME280;27468;47.460;19.034;2024-01-15T05:50:29;99004.22;;;-3.52;100.00
41800;BME280;27468;47.460;19.034;2024-01-15T05:52:55;99011.09;;;-3.51;100.00
41800;BME280;27468;47.460;19.034;2024-01-15T05:55:20;99009.38;;;-3.52;100.00
41800;BME280;27468;47.460;19.034;2024-01-15T05:57:45;98987.78;;;-3.60;100.00
41800;BME280;27468;47.460;19.034;2024-01-15T06:00:11;99008.56;;;-3.48;100.00
41800;BME280;27468;47.460;19.034;2024-01-15T06:02:37;98993.06;;;-3.53;100.00
41800;BME280;27468;47.460;19.034;2024-01-15T06:05:03;98980.94;;;-3.58;100.00
41800;BME280;27468;47.460;19.034;2024-01-15T06:07:29;98980.13;;;-3.56;100.00
41800;BME280;27468;47.460;19.034;2024-01-15T06:09:56;98982.75;;;-3.53;100.00
41800;BME280;27468;47.460;19.034;2024-01-15T06:12:22;98978.38;;;-3.58;100.00
41800;BME280;27468;47.460;19.034;2024-01-15T06:14:48;98982.63;;;-3.60;100.00
41800;BME280;27468;47.460;19.034;2024-01-15T06:17:13;98992.19;;;-3.53;100.00
41800;BME280;27468;47.460;19.034;2024-01-15T06:19:38;99006.84;;;-3.46;100.00
41800;BME280;27468;47.460;19.034;2024-01-15T06:22:04;98991.38;;;-3.51;100.00
41800;BME280;27468;47.460;19.034;2024-01-15T06:24:29;98992.31;;;-3.43;100.00
41800;BME280;27468;47.460;19.034;2024-01-15T06:26:54;98990.59;;;-3.42;100.00
41800;BME280;27468;47.460;19.034;2024-01-15T06:29:19;98995.91;;;-3.30;100.00
41800;BME280;27468;47.460;19.034;2024-01-15T06:31:45;98985.53;;;-3.35;100.00
41800;BME280;27468;47.460;19.034;2024-01-15T06:34:10;98997.72;;;-3.24;100.00
41800;BME280;27468;47.460;19.034;2024-01-15T06:36:36;98988.25;;;-3.25;100.00
41800;BME280;27468;47.460;19.034;2024-01-15T06:39:01;98996.06;;;-3.19;100.00
41800;BME280;27468;47.460;19.034;2024-01-15T06:41:27;98990.88;;;-3.21;100.00
41800;BME280;27468;47.460;19.034;2024-01-15T06:43:52;98995.28;;;-3.14;100.00
41800;BME280;27468;47.460;19.034;2024-01-15T06:46:21;99017.69;;;-3.08;100.00
41800;BME280;27468;47.460;19.034;2024-01-15T06:48:47;98995.28;;;-3.12;100.00
41800;BME280;27468;47.460;19.034;2024-01-15T06:51:12;98999.63;;;-3.10;100.00
41800;BME280;27468;47.460;19.034;2024-01-15T06:53:38;99009.16;;;-3.03;100.00
41800;BME280;27468;47.460;19.034;2024-01-15T06:56:03;99016.88;;;-3.04;100.00
41800;BME280;27468;47.460;19.034;2024-01-15T06:58:30;99004.78;;;-3.08;100.00
41800;BME280;27468;47.460;19.034;2024-01-15T07:00:56;98981.41;;;-3.23;100.00
41800;BME280;27468;47.460;19.034;2024-01-15T07:03:21;98984.06;;;-3.16;100.00
41800;BME280;27468;47.460;19.034;2024-01-15T07:05:47;98989.28;;;-3.13;100.00
41800;BME280;27468;47.460;19.034;2024-01-15T07:08:12;98995.38;;;-3.06;100.00
41800;BME280;27468;47.460;19.034;2024-01-15T07:10:38;99016.97;;;-2.98;100.00
41800;BME280;27468;47.460;19.034;2024-01-15T07:13:03;99004.94;;;-2.97;100.00
41800;BME280;27468;47.460;19.034;2024-01-15T07:15:30;99002.38;;;-2.96;100.00
41800;BME280;27468;47.460;19.034;2024-01-15T07:17:55;99012.75;;;-2.88;100.00
41800;BME280;27468;47.460;19.034;2024-01-15T07:20:21;99023.94;;;-2.86;100.00
41800;BME280;27468;47.460;19.034;2024-01-15T07:22:47;99027.38;;;-2.89;100.00
41800;BME280;27468;47.460;19.034;2024-01-15T07:25:12;99017.06;;;-2.90;100.00
41800;BME280;27468;47.460;19.034;2024-01-15T07:27:38;99014.44;;;-2.93;100.00
41800;BME280;27468;47.460;19.034;2024-01-15T07:30:03;99039.41;;;-2.89;100.00
41800;BME280;27468;47.460;19.034;2024-01-15T07:32:30;99028.19;;;-2.93;100.00
41800;BME280;27468;47.460;19.034;2024-01-15T07:34:56;99039.41;;;-2.91;100.00
41800;BME280;27468;47.460;19.034;2024-01-15T07:37:22;99033.31;;;-2.96;100.00
41800;BME280;27468;47.460;19.034;2024-01-15T07:39:48;99044.53;;;-2.92;100.00
41800;BME280;27468;47.460;19.034;2024-01-15T07:42:14;99047.09;;;-2.92;100.00
41800;BME280;27468;47.460;19.034;2024-01-15T07:44:39;99042.84;;;-2.90;100.00
41800;BME280;27468;47.460;19.034;2024-01-15T07:47:06;99041.03;;;-2.97;100.00
41800;BME280;27468;47.460;19.034;2024-01-15T07:49:31;99029.81;;;-3.01;100.00
41800;BME280;27468;47.460;19.034;2024-01-15T07:51:56;99018.59;;;-3.05;100.00
41800;BME280;27468;47.460;19.034;2024-01-15T07:54:22;99019.50;;;-3.00;100.00
41800;BME280;27468;47.460;19.034;2024-01-15T07:57:01;99033.28;;;-2.97;100.00
41800;BME280;27468;47.460;19.034;2024-01-15T07:59:30;99035.97;;;-2.90;100.00
41800;BME280;27468;47.460;19.034;2024-01-15T08:01:55;99035.94;;;-2.88;100.00
41800;BME280;27468;47.460;19.034;2024-01-15T08:04:20;99048.13;;;-2.78;100.00
41800;BME280;27468;47.460;19.034;2024-01-15T08:06:47;99032.63;;;-2.78;100.00
41800;BME280;27468;47.460;19.034;2024-01-15T08:09:12;99048.22;;;-2.69;100.00
41800;BME280;27468;47.460;19.034;2024-01-15T08:11:42;99031.88;;;-2.70;100.00
41800;BME280;27468;47.460;19.034;2024-01-15T08:14:08;99041.47;;;-2.58;100.00
41800;BME280;27468;47.460;19.034;2024-01-15T08:16:33;99038.94;;;-2.55;100.00
41800;BME280;27468;47.460;19.034;2024-01-15T08:18:59;99029.50;;;-2.53;100.00
41800;BME280;27468;47.460;19.034;2024-01-15T08:21:24;99030.47;;;-2.43;100.00
41800;BME280;27468;47.460;19.034;2024-01-15T08:23:50;99045.22;;;-2.28;100.00
41800;BME280;27468;47.460;19.034;2024-01-15T08:26:15;99024.63;;;-2.21;100.00
41800;BME280;27468;47.460;19.034;2024-01-15T08:28:40;99035.03;;;-2.12;100.00
41800;BME280;27468;47.460;19.034;2024-01-15T08:31:06;99025.66;;;-2.04;100.00
41800;BME280;27468;47.460;19.034;2024-01-15T08:33:31;99054.22;;;-1.87;100.00
41800;BME280;27468;47.460;19.034;2024-01-15T08:35:57;99039.66;;;-1.79;100.00
41800;BME280;27468;47.460;19.034;2024-01-15T08:38:22;99056.91;;;-1.69;100.00
41800;BME280;27468;47.460;19.034;2024-01-15T08:40:49;99054.38;;;-1.62;100.00
41800;BME280;27468;47.460;19.034;2024-01-15T08:43:14;99057.09;;;-1.46;100.00
41800;BME280;27468;47.460;19.034;2024-01-15T08:45:40;99048.50;;;-1.42;100.00
41800;BME280;27468;47.460;19.034;2024-01-15T08:48:05;99055.50;;;-1.25;100.00
41800;BME280;27468;47.460;19.034;2024-01-15T08:50:32;99042.63;;;-1.13;100.00
41800;BME280;27468;47.460;19.034;2024-01-15T08:52:58;99062.56;;;-0.95;100.00
41800;BME280;27468;47.460;19.034;2024-01-15T08:55:23;99047.13;;;-0.80;100.00
41800;BME280;27468;47.460;19.034;2024-01-15T08:57:49;99039.44;;;-0.62;98.41
41800;BME280;27468;47.460;19.034;2024-01-15T09:00:15;99050.66;;;-0.49;97.50
41800;BME280;27468;47.460;19.034;2024-01-15T09:02:42;99047.28;;;-0.21;92.53
41800;BME280;27468;47.460;19.034;2024-01-15T09:05:07;99058.53;;;-0.11;91.03
41800;BME280;27468;47.460;19.034;2024-01-15T09:07:33;99049.88;;;-0.12;89.53
41800;BME280;27468;47.460;19.034;2024-01-15T09:09:58;99068.03;;;0.17;86.73
41800;BME280;27468;47.460;19.034;2024-01-15T09:12:25;99055.94;;;0.18;86.34
41800;BME280;27468;47.460;19.034;2024-01-15T09:14:50;99062.00;;;0.30;85.88
41800;BME280;27468;47.460;19.034;2024-01-15T09:17:17;99046.44;;;0.37;84.14
41800;BME280;27468;47.460;19.034;2024-01-15T09:19:42;99043.00;;;0.45;83.18
41800;BME280;27468;47.460;19.034;2024-01-15T09:22:08;99036.03;;;0.59;82.07
41800;BME280;27468;47.460;19.034;2024-01-15T09:24:33;99043.81;;;0.72;80.91
41800;BME280;27468;47.460;19.034;2024-01-15T09:26:58;99034.28;;;0.81;80.12
41800;BME280;27468;47.460;19.034;2024-01-15T09:29:24;99020.44;;;0.82;79.28
41800;BME280;27468;47.460;19.034;2024-01-15T09:31:50;99009.16;;;0.92;78.66
41800;BME280;27468;47.460;19.034;2024-01-15T09:34:15;99016.06;;;0.95;79.01
41800;BME280;27468;47.460;19.034;2024-01-15T09:36:41;99008.28;;;0.98;79.57
41800;BME280;27468;47.460;19.034;2024-01-15T09:39:08;99029.00;;;1.15;77.57
41800;BME280;27468;47.460;19.034;2024-01-15T09:41:37;99021.13;;;1.30;75.59
41800;BME280;27468;47.460;19.034;2024-01-15T09:44:03;99014.13;;;1.41;74.48
41800;BME280;27468;47.460;19.034;2024-01-15T09:46:31;99014.94;;;1.52;73.03
41800;BME280;27468;47.460;19.034;2024-01-15T09:48:57;99002.81;;;1.54;72.93
41800;BME280;27468;47.460;19.034;2024-01-15T09:51:24;98995.00;;;1.57;72.42
41800;BME280;27468;47.460;19.034;2024-01-15T09:53:50;98982.84;;;1.67;71.44
41800;BME280;27468;47.460;19.034;2024-01-15T09:56:15;98983.59;;;1.78;71.20
41800;BME280;27468;47.460;19.034;2024-01-15T09:58:41;98986.13;;;1.89;69.61
41800;BME280;27468;47.460;19.034;2024-01-15T10:01:08;98982.59;;;1.96;69.86
41800;BME280;27468;47.460;19.034;2024-01-15T10:03:34;98982.59;;;1.99;70.56
41800;BME280;27468;47.460;19.034;2024-01-15T10:05:59;98976.50;;;2.03;69.97
41800;BME280;27468;47.460;19.034;2024-01-15T10:08:25;98955.66;;;2.08;69.29
41800;BME280;27468;47.460;19.034;2024-01-15T10:10:51;98964.22;;;2.19;69.15
41800;BME280;27468;47.460;19.034;2024-01-15T10:13:17;98974.56;;;2.28;69.50
41800;BME280;27468;47.460;19.034;2024-01-15T10:15:45;98967.53;;;2.35;69.33
41800;BME280;27468;47.460;19.034;2024-01-15T10:18:11;98970.03;;;2.45;68.54
41800;BME280;27468;47.460;19.034;2024-01-15T10:20:37;98950.03;;;2.50;68.28
41800;BME280;27468;47.460;19.034;2024-01-15T10:23:03;98942.13;;;2.59;67.47
41800;BME280;27468;47.460;19.034;2024-01-15T10:25:29;98937.69;;;2.69;66.05
41800;BME280;27468;47.460;19.034;2024-01-15T10:28:03;98948.84;;;2.82;66.39
41800;BME280;27468;47.460;19.034;2024-01-15T10:30:30;98936.53;;;2.91;65.13
41800;BME280;27468;47.460;19.034;2024-01-15T10:33:01;98928.63;;;2.99;63.99
41800;BME280;27468;47.460;19.034;2024-01-15T10:35:34;98931.09;;;3.10;61.88
41800;BME280;27468;47.460;19.034;2024-01-15T10:38:00;98916.19;;;3.22;60.09
41800;BME280;27468;47.460;19.034;2024-01-15T10:40:26;98923.13;;;3.22;60.04
41800;BME280;27468;47.460;19.034;2024-01-15T10:42:52;98910.97;;;3.24;60.16
41800;BME280;27468;47.460;19.034;2024-01-15T10:45:18;98918.63;;;3.35;59.26
41800;BME280;27468;47.460;19.034;2024-01-15T10:47:43;98941.09;;;3.43;59.65
41800;BME280;27468;47.460;19.034;2024-01-15T10:50:09;98941.94;;;3.44;59.79
41800;BME280;27468;47.460;19.034;2024-01-15T10:52:36;98942.63;;;3.55;58.80
41800;BME280;27468;47.460;19.034;2024-01-15T10:55:03;98938.31;;;3.52;59.42
41800;BME280;27468;47.460;19.034;2024-01-15T10:57:29;98926.06;;;3.59;59.00
41800;BME280;27468;47.460;19.034;2024-01-15T10:59:54;98922.47;;;3.68;58.51
41800;BME280;27468;47.460;19.034;2024-01-15T11:02:20;98922.50;;;3.64;59.14
41800;BME280;27468;47.460;19.034;2024-01-15T11:04:45;98925.19;;;3.60;59.76
41800;BME280;27468;47.460;19.034;2024-01-15T11:07:13;98921.72;;;3.59;59.93
41800;BME280;27468;47.460;19.034;2024-01-15T11:09:39;98917.25;;;3.68;59.38
41800;BME280;27468;47.460;19.034;2024-01-15T11:12:11;98920.72;;;3.67;60.46
41800;BME280;27468;47.460;19.034;2024-01-15T11:14:40;98937.88;;;3.81;60.43
41800;BME280;27468;47.460;19.034;2024-01-15T11:17:06;98936.97;;;3.85;60.39
41800;BME280;27468;47.460;19.034;2024-01-15T11:19:48;98917.78;;;3.89;59.88
41800;BME280;27468;47.460;19.034;2024-01-15T11:24:54;98924.59;;;3.96;59.43
41800;BME280;27468;47.460;19.034;2024-01-15T11:27:39;98915.88;;;3.99;59.45
41800;BME280;27468;47.460;19.034;2024-01-15T11:30:08;98907.88;;;4.08;59.77
41800;BME280;27468;47.460;19.034;2024-01-15T11:32:34;98909.50;;;4.14;59.32
41800;BME280;27468;47.460;19.034;2024-01-15T11:35:01;98905.13;;;4.16;59.39
41800;BME280;27468;47.460;19.034;2024-01-15T11:40:12;98889.25;;;4.28;58.24
41800;BME280;27468;47.460;19.034;2024-01-15T11:42:38;98895.22;;;4.35;58.65
41800;BME280;27468;47.460;19.034;2024-01-15T11:45:03;98898.50;;;4.46;57.08
41800;BME280;27468;47.460;19.034;2024-01-15T11:50:14;98908.13;;;4.42;58.00
41800;BME280;27468;47.460;19.034;2024-01-15T11:52:43;98899.41;;;4.43;57.95
41800;BME280;27468;47.460;19.034;2024-01-15T11:55:26;98887.19;;;4.47;58.07
41800;BME280;27468;47.460;19.034;2024-01-15T11:57:53;98865.44;;;4.46;57.60
41800;BME280;27468;47.460;19.034;2024-01-15T12:00:22;98861.06;;;4.48;57.75
41800;BME280;27468;47.460;19.034;2024-01-15T12:02:49;98868.81;;;4.51;57.36
41800;BME280;27468;47.460;19.034;2024-01-15T12:05:17;98876.56;;;4.56;56.66
41800;BME280;27468;47.460;19.034;2024-01-15T12:07:44;98874.81;;;4.56;56.97
41800;BME280;27468;47.460;19.034;2024-01-15T12:10:14;98887.84;;;4.58;57.56
41800;BME280;27468;47.460;19.034;2024-01-15T12:15:09;98872.13;;;4.61;57.23
41800;BME280;27468;47.460;19.034;2024-01-15T12:17:35;98848.56;;;4.62;56.79
41800;BME280;27468;47.460;19.034;2024-01-15T12:20:00;98833.72;;;4.64;57.13
41800;BME280;27468;47.460;19.034;2024-01-15T12:22:26;98848.28;;;4.76;57.25
41800;BME280;27468;47.460;19.034;2024-01-15T12:24:53;98833.63;;;4.69;56.30
41800;BME280;27468;47.460;19.034;2024-01-15T12:27:19;98831.81;;;4.73;56.26
41800;BME280;27468;47.460;19.034;2024-01-15T12:29:45;98823.19;;;4.69;55.59
41800;BME280;27468;47.460;19.034;2024-01-15T12:32:12;98837.78;;;4.79;55.21
41800;BME280;27468;47.460;19.034;2024-01-15T12:34:37;98826.53;;;4.76;55.68
41800;BME280;27468;47.460;19.034;2024-01-15T12:37:03;98814.44;;;4.72;56.25
41800;BME280;27468;47.460;19.034;2024-01-15T12:39:28;98829.22;;;4.73;56.32
41800;BME280;27468;47.460;19.034;2024-01-15T12:41:54;98820.53;;;4.72;56.02
41800;BME280;27468;47.460;19.034;2024-01-15T12:44:19;98823.03;;;4.77;55.34
41800;BME280;27468;47.460;19.034;2024-01-15T12:46:45;98801.03;;;4.88;54.61
41800;BME280;27468;47.460;19.034;2024-01-15T12:49:10;98818.34;;;4.92;54.25
41800;BME280;27468;47.460;19.034;2024-01-15T12:51:36;98803.53;;;4.93;53.43